sensor_id;sensor_type;location;lat;lon;timestamp;P1;durP1;ratioP1;P2;durP2;ratioP2
962;SDS011;469;48.770;9.176;2023-02-28T00:01:14;4.25;;;1.98;;
962;SDS011;469;48.770;9.176;2023-02-28T00:03:43;5.10;;;2.25;;
962;SDS011;469;48.770;9.176;2023-02-28T00:06:12;7.55;;;2.60;;
962;SDS011;469;48.770;9.176;2023-02-28T00:08:39;3.95;;;2.00;;
962;SDS011;469;48.770;9.176;2023-02-28T00:11:06;5.10;;;2.15;;
962;SDS011;469;48.770;9.176;2023-02-28T00:13:45;5.03;;;2.00;;
962;SDS011;469;48.770;9.176;2023-02-28T00:16:13;3.88;;;1.77;;
962;SDS011;469;48.770;9.176;2023-02-28T00:18:42;4.97;;;2.30;;
962;SDS011;469;48.770;9.176;2023-02-28T00:21:09;4.53;;;1.90;;
962;SDS011;469;48.770;9.176;2023-02-28T00:23:36;6.63;;;1.90;;
962;SDS011;469;48.770;9.176;2023-02-28T00:26:03;12.77;;;2.22;;
962;SDS011;469;48.770;9.176;2023-02-28T00:28:30;5.70;;;1.88;;
962;SDS011;469;48.770;9.176;2023-02-28T00:30:57;4.00;;;1.90;;
962;SDS011;469;48.770;9.176;2023-02-28T00:33:24;3.88;;;1.80;;
962;SDS011;469;48.770;9.176;2023-02-28T00:35:53;4.03;;;1.95;;
962;SDS011;469;48.770;9.176;2023-02-28T00:38:28;6.32;;;2.50;;
962;SDS011;469;48.770;9.176;2023-02-28T00:40:55;6.75;;;1.92;;
962;SDS011;469;48.770;9.176;2023-02-28T00:43:21;4.90;;;2.00;;
962;SDS011;469;48.770;9.176;2023-02-28T00:45:48;3.20;;;1.90;;
962;SDS011;469;48.770;9.176;2023-02-28T00:48:15;4.63;;;1.88;;
962;SDS011;469;48.770;9.176;2023-02-28T00:50:42;4.25;;;1.83;;
962;SDS011;469;48.770;9.176;2023-02-28T00:53:10;4.72;;;1.98;;
962;SDS011;469;48.770;9.176;2023-02-28T00:55:36;5.60;;;2.05;;
962;SDS011;469;48.770;9.176;2023-02-28T00:58:03;3.70;;;2.15;;
962;SDS011;469;48.770;9.176;2023-02-28T01:00:30;6.93;;;2.30;;
962;SDS011;469;48.770;9.176;2023-02-28T01:02:57;8.35;;;2.05;;
962;SDS011;469;48.770;9.176;2023-02-28T01:05:23;5.07;;;2.40;;
962;SDS011;469;48.770;9.176;2023-02-28T01:07:50;4.47;;;1.73;;
962;SDS011;469;48.770;9.176;2023-02-28T01:10:18;6.70;;;2.35;;
962;SDS011;469;48.770;9.176;2023-02-28T01:12:45;4.15;;;2.38;;
962;SDS011;469;48.770;9.176;2023-02-28T01:15:12;7.15;;;2.20;;
962;SDS011;469;48.770;9.176;2023-02-28T01:17:39;4.28;;;2.00;;
962;SDS011;469;48.770;9.176;2023-02-28T01:20:06;6.53;;;2.40;;
962;SDS011;469;48.770;9.176;2023-02-28T01:22:34;6.20;;;2.03;;
962;SDS011;469;48.770;9.176;2023-02-28T01:25:01;3.95;;;2.10;;
962;SDS011;469;48.770;9.176;2023-02-28T01:27:29;6.80;;;2.35;;
962;SDS011;469;48.770;9.176;2023-02-28T01:29:56;5.47;;;2.30;;
962;SDS011;469;48.770;9.176;2023-02-28T01:32:23;5.50;;;2.50;;
962;SDS011;469;48.770;9.176;2023-02-28T01:34:49;4.82;;;2.60;;
962;SDS011;469;48.770;9.176;2023-02-28T01:37:16;5.65;;;2.80;;
962;SDS011;469;48.770;9.176;2023-02-28T01:39:43;8.90;;;2.75;;
962;SDS011;469;48.770;9.176;2023-02-28T01:42:09;5.35;;;2.35;;
962;SDS011;469;48.770;9.176;2023-02-28T01:45:00;5.97;;;2.83;;
962;SDS011;469;48.770;9.176;2023-02-28T01:47:30;5.35;;;2.90;;
962;SDS011;469;48.770;9.176;2023-02-28T01:50:00;6.40;;;2.67;;
962;SDS011;469;48.770;9.176;2023-02-28T01:52:30;6.57;;;2.40;;
962;SDS011;469;48.770;9.176;2023-02-28T01:54:58;5.32;;;2.47;;
962;SDS011;469;48.770;9.176;2023-02-28T01:57:28;5.13;;;2.45;;
962;SDS011;469;48.770;9.176;2023-02-28T02:00:04;6.22;;;2.65;;
962;SDS011;469;48.770;9.176;2023-02-28T02:02:34;6.13;;;2.17;;
962;SDS011;469;48.770;9.176;2023-02-28T02:05:03;11.68;;;3.50;;
962;SDS011;469;48.770;9.176;2023-02-28T02:07:32;7.00;;;2.42;;
962;SDS011;469;48.770;9.176;2023-02-28T02:10:03;5.85;;;2.35;;
962;SDS011;469;48.770;9.176;2023-02-28T02:12:37;4.93;;;2.47;;
962;SDS011;469;48.770;9.176;2023-02-28T02:15:20;6.47;;;2.75;;
962;SDS011;469;48.770;9.176;2023-02-28T02:17:55;3.92;;;2.25;;
962;SDS011;469;48.770;9.176;2023-02-28T02:23:33;7.68;;;2.50;;
962;SDS011;469;48.770;9.176;2023-02-28T02:26:31;8.10;;;2.58;;
962;SDS011;469;48.770;9.176;2023-02-28T02:29:30;7.10;;;2.70;;
962;SDS011;469;48.770;9.176;2023-02-28T02:32:42;5.00;;;2.50;;
962;SDS011;469;48.770;9.176;2023-02-28T02:35:41;6.05;;;3.00;;
962;SDS011;469;48.770;9.176;2023-02-28T02:38:15;5.03;;;2.42;;
962;SDS011;469;48.770;9.176;2023-02-28T02:40:55;8.23;;;3.47;;
962;SDS011;469;48.770;9.176;2023-02-28T02:46:55;7.78;;;3.00;;
962;SDS011;469;48.770;9.176;2023-02-28T02:49:28;7.00;;;2.90;;
962;SDS011;469;48.770;9.176;2023-02-28T02:52:00;7.68;;;2.92;;
962;SDS011;469;48.770;9.176;2023-02-28T02:54:30;13.30;;;3.15;;
962;SDS011;469;48.770;9.176;2023-02-28T02:57:03;5.45;;;2.90;;
962;SDS011;469;48.770;9.176;2023-02-28T02:59:33;7.35;;;2.65;;
962;SDS011;469;48.770;9.176;2023-02-28T03:02:02;6.20;;;2.80;;
962;SDS011;469;48.770;9.176;2023-02-28T03:04:33;6.85;;;2.85;;
962;SDS011;469;48.770;9.176;2023-02-28T03:07:05;10.40;;;3.10;;
962;SDS011;469;48.770;9.176;2023-02-28T03:09:33;14.77;;;5.38;;
962;SDS011;469;48.770;9.176;2023-02-28T03:12:01;8.40;;;2.70;;
962;SDS011;469;48.770;9.176;2023-02-28T03:14:33;7.63;;;2.65;;
962;SDS011;469;48.770;9.176;2023-02-28T03:17:23;5.53;;;2.97;;
962;SDS011;469;48.770;9.176;2023-02-28T03:20:01;6.13;;;2.60;;
962;SDS011;469;48.770;9.176;2023-02-28T03:22:47;7.18;;;3.10;;
962;SDS011;469;48.770;9.176;2023-02-28T03:25:28;4.85;;;2.60;;
962;SDS011;469;48.770;9.176;2023-02-28T03:28:00;7.22;;;3.70;;
962;SDS011;469;48.770;9.176;2023-02-28T03:30:33;6.32;;;3.30;;
962;SDS011;469;48.770;9.176;2023-02-28T03:33:06;6.00;;;2.80;;
962;SDS011;469;48.770;9.176;2023-02-28T03:35:38;9.10;;;3.20;;
962;SDS011;469;48.770;9.176;2023-02-28T03:38:12;7.13;;;2.70;;
962;SDS011;469;48.770;9.176;2023-02-28T03:40:45;6.70;;;3.30;;
962;SDS011;469;48.770;9.176;2023-02-28T03:43:18;10.05;;;3.35;;
962;SDS011;469;48.770;9.176;2023-02-28T03:45:51;4.75;;;2.45;;
962;SDS011;469;48.770;9.176;2023-02-28T03:48:19;7.18;;;3.20;;
962;SDS011;469;48.770;9.176;2023-02-28T03:50:51;5.63;;;3.10;;
962;SDS011;469;48.770;9.176;2023-02-28T03:53:22;4.90;;;2.90;;
962;SDS011;469;48.770;9.176;2023-02-28T03:55:54;6.40;;;3.15;;
962;SDS011;469;48.770;9.176;2023-02-28T03:58:27;5.18;;;3.03;;
962;SDS011;469;48.770;9.176;2023-02-28T04:00:57;7.53;;;3.20;;
962;SDS011;469;48.770;9.176;2023-02-28T04:03:33;8.27;;;3.50;;
962;SDS011;469;48.770;9.176;2023-02-28T04:06:01;11.40;;;3.30;;
962;SDS011;469;48.770;9.176;2023-02-28T04:08:29;6.07;;;3.13;;
962;SDS011;469;48.770;9.176;2023-02-28T04:10:57;7.78;;;3.47;;
962;SDS011;469;48.770;9.176;2023-02-28T04:13:31;7.85;;;3.72;;
962;SDS011;469;48.770;9.176;2023-02-28T04:15:57;6.68;;;3.15;;
962;SDS011;469;48.770;9.176;2023-02-28T04:18:24;5.85;;;3.60;;
962;SDS011;469;48.770;9.176;2023-02-28T04:20:51;5.65;;;3.45;;
962;SDS011;469;48.770;9.176;2023-02-28T04:23:17;7.93;;;3.22;;
962;SDS011;469;48.770;9.176;2023-02-28T04:25:45;6.10;;;3.28;;
962;SDS011;469;48.770;9.176;2023-02-28T04:28:12;8.55;;;3.65;;
962;SDS011;469;48.770;9.176;2023-02-28T04:30:39;10.77;;;3.03;;
962;SDS011;469;48.770;9.176;2023-02-28T04:33:05;6.30;;;2.90;;
962;SDS011;469;48.770;9.176;2023-02-28T04:35:32;6.40;;;3.10;;
962;SDS011;469;48.770;9.176;2023-02-28T04:37:59;5.75;;;3.10;;
962;SDS011;469;48.770;9.176;2023-02-28T04:40:25;7.10;;;3.53;;
962;SDS011;469;48.770;9.176;2023-02-28T04:42:54;6.40;;;3.50;;
962;SDS011;469;48.770;9.176;2023-02-28T04:45:20;6.35;;;3.42;;
962;SDS011;469;48.770;9.176;2023-02-28T04:47:47;8.32;;;3.45;;
962;SDS011;469;48.770;9.176;2023-02-28T04:50:14;7.35;;;3.40;;
962;SDS011;469;48.770;9.176;2023-02-28T04:52:41;8.20;;;3.30;;
962;SDS011;469;48.770;9.176;2023-02-28T04:55:07;6.78;;;3.08;;
962;SDS011;469;48.770;9.176;2023-02-28T04:57:35;8.40;;;3.40;;
962;SDS011;469;48.770;9.176;2023-02-28T05:00:03;6.32;;;3.40;;
962;SDS011;469;48.770;9.176;2023-02-28T05:02:36;10.70;;;3.80;;
962;SDS011;469;48.770;9.176;2023-02-28T05:05:03;8.40;;;3.80;;
962;SDS011;469;48.770;9.176;2023-02-28T05:07:30;12.27;;;3.35;;
962;SDS011;469;48.770;9.176;2023-02-28T05:09:57;9.10;;;3.75;;
962;SDS011;469;48.770;9.176;2023-02-28T05:12:23;9.25;;;3.60;;
962;SDS011;469;48.770;9.176;2023-02-28T05:14:50;9.85;;;3.80;;
962;SDS011;469;48.770;9.176;2023-02-28T05:17:18;7.97;;;3.88;;
962;SDS011;469;48.770;9.176;2023-02-28T05:19:45;9.15;;;3.75;;
962;SDS011;469;48.770;9.176;2023-02-28T05:22:12;8.52;;;3.60;;
962;SDS011;469;48.770;9.176;2023-02-28T05:24:41;7.95;;;3.63;;
962;SDS011;469;48.770;9.176;2023-02-28T05:27:08;10.25;;;3.90;;
962;SDS011;469;48.770;9.176;2023-02-28T05:29:35;11.90;;;4.10;;
962;SDS011;469;48.770;9.176;2023-02-28T05:32:06;9.27;;;3.95;;
962;SDS011;469;48.770;9.176;2023-02-28T05:34:38;6.50;;;3.15;;
962;SDS011;469;48.770;9.176;2023-02-28T05:37:05;8.25;;;4.53;;
962;SDS011;469;48.770;9.176;2023-02-28T05:39:39;13.90;;;4.15;;
962;SDS011;469;48.770;9.176;2023-02-28T05:42:06;8.68;;;4.30;;
962;SDS011;469;48.770;9.176;2023-02-28T05:44:32;6.30;;;3.55;;
962;SDS011;469;48.770;9.176;2023-02-28T05:46:59;10.50;;;4.13;;
962;SDS011;469;48.770;9.176;2023-02-28T05:49:26;7.88;;;4.00;;
962;SDS011;469;48.770;9.176;2023-02-28T05:51:54;7.78;;;3.92;;
962;SDS011;469;48.770;9.176;2023-02-28T05:54:21;9.63;;;4.90;;
962;SDS011;469;48.770;9.176;2023-02-28T05:56:47;17.45;;;4.22;;
962;SDS011;469;48.770;9.176;2023-02-28T05:59:14;9.25;;;4.40;;
962;SDS011;469;48.770;9.176;2023-02-28T06:01:42;13.35;;;4.55;;
962;SDS011;469;48.770;9.176;2023-02-28T06:04:13;11.57;;;4.43;;
962;SDS011;469;48.770;9.176;2023-02-28T06:06:42;9.27;;;4.18;;
962;SDS011;469;48.770;9.176;2023-02-28T06:09:12;10.73;;;5.00;;
962;SDS011;469;48.770;9.176;2023-02-28T06:11:39;10.70;;;4.45;;
962;SDS011;469;48.770;9.176;2023-02-28T06:14:13;7.82;;;3.90;;
962;SDS011;469;48.770;9.176;2023-02-28T06:16:42;9.95;;;4.40;;
962;SDS011;469;48.770;9.176;2023-02-28T06:19:09;9.68;;;4.30;;
962;SDS011;469;48.770;9.176;2023-02-28T06:21:36;9.65;;;4.28;;
962;SDS011;469;48.770;9.176;2023-02-28T06:24:06;10.65;;;4.38;;
962;SDS011;469;48.770;9.176;2023-02-28T06:26:35;10.40;;;4.60;;
962;SDS011;469;48.770;9.176;2023-02-28T06:29:02;9.30;;;4.80;;
962;SDS011;469;48.770;9.176;2023-02-28T06:31:29;10.20;;;4.50;;
962;SDS011;469;48.770;9.176;2023-02-28T06:33:59;12.23;;;4.90;;
962;SDS011;469;48.770;9.176;2023-02-28T06:36:27;10.80;;;4.13;;
962;SDS011;469;48.770;9.176;2023-02-28T06:38:57;11.07;;;5.05;;
962;SDS011;469;48.770;9.176;2023-02-28T06:41:24;19.13;;;4.75;;
962;SDS011;469;48.770;9.176;2023-02-28T06:44:00;9.73;;;5.13;;
962;SDS011;469;48.770;9.176;2023-02-28T06:46:27;9.65;;;4.80;;
962;SDS011;469;48.770;9.176;2023-02-28T06:48:55;11.52;;;4.65;;
962;SDS011;469;48.770;9.176;2023-02-28T06:51:22;11.43;;;4.35;;
962;SDS011;469;48.770;9.176;2023-02-28T06:53:49;9.93;;;4.85;;
962;SDS011;469;48.770;9.176;2023-02-28T06:56:17;15.00;;;5.05;;
962;SDS011;469;48.770;9.176;2023-02-28T06:58:46;16.67;;;4.60;;
962;SDS011;469;48.770;9.176;2023-02-28T07:01:15;11.18;;;4.97;;
962;SDS011;469;48.770;9.176;2023-02-28T07:03:44;9.27;;;4.38;;
962;SDS011;469;48.770;9.176;2023-02-28T07:06:11;11.75;;;4.95;;
962;SDS011;469;48.770;9.176;2023-02-28T07:08:43;12.80;;;4.82;;
962;SDS011;469;48.770;9.176;2023-02-28T07:11:13;14.27;;;5.10;;
962;SDS011;469;48.770;9.176;2023-02-28T07:13:40;10.43;;;5.32;;
962;SDS011;469;48.770;9.176;2023-02-28T07:16:11;11.07;;;4.57;;
962;SDS011;469;48.770;9.176;2023-02-28T07:18:40;10.98;;;4.90;;
962;SDS011;469;48.770;9.176;2023-02-28T07:21:10;14.35;;;5.05;;
962;SDS011;469;48.770;9.176;2023-02-28T07:23:39;13.10;;;5.57;;
962;SDS011;469;48.770;9.176;2023-02-28T07:26:10;9.43;;;4.93;;
962;SDS011;469;48.770;9.176;2023-02-28T07:28:44;10.85;;;4.82;;
962;SDS011;469;48.770;9.176;2023-02-28T07:31:18;12.20;;;5.45;;
962;SDS011;469;48.770;9.176;2023-02-28T07:33:49;13.85;;;5.75;;
962;SDS011;469;48.770;9.176;2023-02-28T07:36:21;9.05;;;4.85;;
962;SDS011;469;48.770;9.176;2023-02-28T07:38:52;9.35;;;5.18;;
962;SDS011;469;48.770;9.176;2023-02-28T07:41:29;11.95;;;5.70;;
962;SDS011;469;48.770;9.176;2023-02-28T07:44:02;10.82;;;5.32;;
962;SDS011;469;48.770;9.176;2023-02-28T07:46:38;11.13;;;5.45;;
962;SDS011;469;48.770;9.176;2023-02-28T07:49:10;11.18;;;5.63;;
962;SDS011;469;48.770;9.176;2023-02-28T07:51:38;10.45;;;5.10;;
962;SDS011;469;48.770;9.176;2023-02-28T07:54:09;13.25;;;5.45;;
962;SDS011;469;48.770;9.176;2023-02-28T07:56:41;10.25;;;5.40;;
962;SDS011;469;48.770;9.176;2023-02-28T07:59:13;14.77;;;5.85;;
962;SDS011;469;48.770;9.176;2023-02-28T08:01:40;10.57;;;5.43;;
962;SDS011;469;48.770;9.176;2023-02-28T08:04:14;14.52;;;6.00;;
962;SDS011;469;48.770;9.176;2023-02-28T08:06:43;13.32;;;5.97;;
962;SDS011;469;48.770;9.176;2023-02-28T08:09:11;13.82;;;5.65;;
962;SDS011;469;48.770;9.176;2023-02-28T08:11:43;12.20;;;6.20;;
962;SDS011;469;48.770;9.176;2023-02-28T08:14:17;12.10;;;6.07;;
962;SDS011;469;48.770;9.176;2023-02-28T08:16:45;9.48;;;5.50;;
962;SDS011;469;48.770;9.176;2023-02-28T08:19:18;14.02;;;5.97;;
962;SDS011;469;48.770;9.176;2023-02-28T08:21:45;13.35;;;5.85;;
962;SDS011;469;48.770;9.176;2023-02-28T08:24:12;11.82;;;6.32;;
962;SDS011;469;48.770;9.176;2023-02-28T08:26:42;14.13;;;5.47;;
962;SDS011;469;48.770;9.176;2023-02-28T08:29:09;13.10;;;6.00;;
962;SDS011;469;48.770;9.176;2023-02-28T08:31:36;13.20;;;5.97;;
962;SDS011;469;48.770;9.176;2023-02-28T08:34:04;13.82;;;6.00;;
962;SDS011;469;48.770;9.176;2023-02-28T08:36:40;12.73;;;5.85;;
962;SDS011;469;48.770;9.176;2023-02-28T08:39:11;14.30;;;5.95;;
962;SDS011;469;48.770;9.176;2023-02-28T08:41:38;11.75;;;5.65;;
962;SDS011;469;48.770;9.176;2023-02-28T08:44:06;16.15;;;6.18;;
962;SDS011;469;48.770;9.176;2023-02-28T08:46:33;11.88;;;5.60;;
962;SDS011;469;48.770;9.176;2023-02-28T08:49:03;12.48;;;6.38;;
962;SDS011;469;48.770;9.176;2023-02-28T08:54:38;10.80;;;5.43;;
962;SDS011;469;48.770;9.176;2023-02-28T08:57:08;18.08;;;6.63;;
962;SDS011;469;48.770;9.176;2023-02-28T08:59:35;14.07;;;6.70;;
962;SDS011;469;48.770;9.176;2023-02-28T09:02:02;13.57;;;6.15;;
962;SDS011;469;48.770;9.176;2023-02-28T09:04:29;11.57;;;6.60;;
962;SDS011;469;48.770;9.176;2023-02-28T09:07:02;21.77;;;7.47;;
962;SDS011;469;48.770;9.176;2023-02-28T09:09:38;17.08;;;8.10;;
962;SDS011;469;48.770;9.176;2023-02-28T09:12:22;18.13;;;8.20;;
962;SDS011;469;48.770;9.176;2023-02-28T09:14:50;16.90;;;6.97;;
962;SDS011;469;48.770;9.176;2023-02-28T09:17:17;13.52;;;6.20;;
962;SDS011;469;48.770;9.176;2023-02-28T09:19:44;14.35;;;5.95;;
962;SDS011;469;48.770;9.176;2023-02-28T09:22:18;12.63;;;5.90;;
962;SDS011;469;48.770;9.176;2023-02-28T09:24:46;12.90;;;6.10;;
962;SDS011;469;48.770;9.176;2023-02-28T09:27:13;15.18;;;6.53;;
962;SDS011;469;48.770;9.176;2023-02-28T09:29:42;14.88;;;6.60;;
962;SDS011;469;48.770;9.176;2023-02-28T09:32:09;15.32;;;6.22;;
962;SDS011;469;48.770;9.176;2023-02-28T09:34:36;11.95;;;6.97;;
962;SDS011;469;48.770;9.176;2023-02-28T09:37:03;13.82;;;6.40;;
962;SDS011;469;48.770;9.176;2023-02-28T09:39:30;14.60;;;7.28;;
962;SDS011;469;48.770;9.176;2023-02-28T09:41:58;15.65;;;8.27;;
962;SDS011;469;48.770;9.176;2023-02-28T09:44:26;14.65;;;7.00;;
962;SDS011;469;48.770;9.176;2023-02-28T09:46:58;13.85;;;6.43;;
962;SDS011;469;48.770;9.176;2023-02-28T09:49:33;13.18;;;5.93;;
962;SDS011;469;48.770;9.176;2023-02-28T09:52:05;16.73;;;6.95;;
962;SDS011;469;48.770;9.176;2023-02-28T09:54:36;10.43;;;5.95;;
962;SDS011;469;48.770;9.176;2023-02-28T09:57:11;14.32;;;6.65;;
962;SDS011;469;48.770;9.176;2023-02-28T09:59:55;12.60;;;6.95;;
962;SDS011;469;48.770;9.176;2023-02-28T10:02:40;12.95;;;6.53;;
962;SDS011;469;48.770;9.176;2023-02-28T10:05:09;17.75;;;6.63;;
962;SDS011;469;48.770;9.176;2023-02-28T10:07:58;16.33;;;6.60;;
962;SDS011;469;48.770;9.176;2023-02-28T10:10:42;12.13;;;6.30;;
962;SDS011;469;48.770;9.176;2023-02-28T10:13:33;14.55;;;7.00;;
962;SDS011;469;48.770;9.176;2023-02-28T10:16:21;14.80;;;6.63;;
962;SDS011;469;48.770;9.176;2023-02-28T10:18:54;18.30;;;6.50;;
962;SDS011;469;48.770;9.176;2023-02-28T10:21:34;12.02;;;6.63;;
962;SDS011;469;48.770;9.176;2023-02-28T10:24:05;23.95;;;7.03;;
962;SDS011;469;48.770;9.176;2023-02-28T10:26:41;15.38;;;7.32;;
962;SDS011;469;48.770;9.176;2023-02-28T10:29:11;13.90;;;7.10;;
962;SDS011;469;48.770;9.176;2023-02-28T10:31:39;16.50;;;7.00;;
962;SDS011;469;48.770;9.176;2023-02-28T10:34:07;16.85;;;7.05;;
962;SDS011;469;48.770;9.176;2023-02-28T10:36:36;15.02;;;6.53;;
962;SDS011;469;48.770;9.176;2023-02-28T10:41:45;17.15;;;7.82;;
962;SDS011;469;48.770;9.176;2023-02-28T10:44:16;13.48;;;6.85;;
962;SDS011;469;48.770;9.176;2023-02-28T10:46:44;14.10;;;6.65;;
962;SDS011;469;48.770;9.176;2023-02-28T10:49:13;15.45;;;7.05;;
962;SDS011;469;48.770;9.176;2023-02-28T10:51:41;18.45;;;8.02;;
962;SDS011;469;48.770;9.176;2023-02-28T10:54:16;14.45;;;7.10;;
962;SDS011;469;48.770;9.176;2023-02-28T10:56:46;15.60;;;7.88;;
962;SDS011;469;48.770;9.176;2023-02-28T10:59:36;10.57;;;6.40;;
962;SDS011;469;48.770;9.176;2023-02-28T11:02:10;12.95;;;6.80;;
962;SDS011;469;48.770;9.176;2023-02-28T11:04:56;13.80;;;7.18;;
962;SDS011;469;48.770;9.176;2023-02-28T11:07:23;14.85;;;7.00;;
962;SDS011;469;48.770;9.176;2023-02-28T11:09:53;15.50;;;7.63;;
962;SDS011;469;48.770;9.176;2023-02-28T11:12:26;14.68;;;7.20;;
962;SDS011;469;48.770;9.176;2023-02-28T11:14:57;17.55;;;7.82;;
962;SDS011;469;48.770;9.176;2023-02-28T11:17:28;11.45;;;6.90;;
962;SDS011;469;48.770;9.176;2023-02-28T11:19:57;15.30;;;6.65;;
962;SDS011;469;48.770;9.176;2023-02-28T11:22:29;18.48;;;7.53;;
962;SDS011;469;48.770;9.176;2023-02-28T11:24:59;14.20;;;7.50;;
962;SDS011;469;48.770;9.176;2023-02-28T11:30:28;13.20;;;6.82;;
962;SDS011;469;48.770;9.176;2023-02-28T11:32:56;13.38;;;6.95;;
962;SDS011;469;48.770;9.176;2023-02-28T11:35:26;14.63;;;7.35;;
962;SDS011;469;48.770;9.176;2023-02-28T11:37:56;13.68;;;6.60;;
962;SDS011;469;48.770;9.176;2023-02-28T11:40:26;16.38;;;7.10;;
962;SDS011;469;48.770;9.176;2023-02-28T11:43:06;16.55;;;7.68;;
962;SDS011;469;48.770;9.176;2023-02-28T11:45:48;13.98;;;7.60;;
962;SDS011;469;48.770;9.176;2023-02-28T11:48:21;12.95;;;7.05;;
962;SDS011;469;48.770;9.176;2023-02-28T11:50:54;18.77;;;7.15;;
962;SDS011;469;48.770;9.176;2023-02-28T11:53:27;20.25;;;7.15;;
962;SDS011;469;48.770;9.176;2023-02-28T11:56:02;18.35;;;7.03;;
962;SDS011;469;48.770;9.176;2023-02-28T11:58:43;15.15;;;7.10;;
962;SDS011;469;48.770;9.176;2023-02-28T12:01:20;11.20;;;6.53;;
962;SDS011;469;48.770;9.176;2023-02-28T12:03:54;16.45;;;7.72;;
962;SDS011;469;48.770;9.176;2023-02-28T12:06:24;12.07;;;6.80;;
962;SDS011;469;48.770;9.176;2023-02-28T12:08:55;14.85;;;6.65;;
962;SDS011;469;48.770;9.176;2023-02-28T12:11:28;15.23;;;7.28;;
962;SDS011;469;48.770;9.176;2023-02-28T12:14:01;14.02;;;7.15;;
962;SDS011;469;48.770;9.176;2023-02-28T12:16:41;18.13;;;7.68;;
962;SDS011;469;48.770;9.176;2023-02-28T12:22:34;12.02;;;6.72;;
962;SDS011;469;48.770;9.176;2023-02-28T12:28:21;14.00;;;6.80;;
962;SDS011;469;48.770;9.176;2023-02-28T12:34:15;13.50;;;7.50;;
962;SDS011;469;48.770;9.176;2023-02-28T12:36:56;13.50;;;7.30;;
962;SDS011;469;48.770;9.176;2023-02-28T12:39:39;17.55;;;7.78;;
962;SDS011;469;48.770;9.176;2023-02-28T12:42:30;11.90;;;6.65;;
962;SDS011;469;48.770;9.176;2023-02-28T12:45:02;13.35;;;7.00;;
962;SDS011;469;48.770;9.176;2023-02-28T12:47:32;14.57;;;6.38;;
962;SDS011;469;48.770;9.176;2023-02-28T12:50:10;15.13;;;7.13;;
962;SDS011;469;48.770;9.176;2023-02-28T12:52:40;14.57;;;6.93;;
962;SDS011;469;48.770;9.176;2023-02-28T12:55:19;12.23;;;7.03;;
962;SDS011;469;48.770;9.176;2023-02-28T12:57:51;11.70;;;6.15;;
962;SDS011;469;48.770;9.176;2023-02-28T13:03:20;15.75;;;7.65;;
962;SDS011;469;48.770;9.176;2023-02-28T13:06:07;10.90;;;6.40;;
962;SDS011;469;48.770;9.176;2023-02-28T13:08:45;14.60;;;6.68;;
962;SDS011;469;48.770;9.176;2023-02-28T13:11:23;17.40;;;7.45;;
962;SDS011;469;48.770;9.176;2023-02-28T13:13:59;11.52;;;6.15;;
962;SDS011;469;48.770;9.176;2023-02-28T13:16:27;14.65;;;6.90;;
962;SDS011;469;48.770;9.176;2023-02-28T13:19:17;14.73;;;7.07;;
962;SDS011;469;48.770;9.176;2023-02-28T13:24:56;21.73;;;10.25;;
962;SDS011;469;48.770;9.176;2023-02-28T13:27:38;17.73;;;7.40;;
962;SDS011;469;48.770;9.176;2023-02-28T13:33:24;14.77;;;7.95;;
962;SDS011;469;48.770;9.176;2023-02-28T13:36:21;14.05;;;6.75;;
962;SDS011;469;48.770;9.176;2023-02-28T13:38:59;13.93;;;7.45;;
962;SDS011;469;48.770;9.176;2023-02-28T13:41:49;14.80;;;7.63;;
962;SDS011;469;48.770;9.176;2023-02-28T13:44:23;15.27;;;7.47;;
962;SDS011;469;48.770;9.176;2023-02-28T13:50:07;11.13;;;5.90;;
962;SDS011;469;48.770;9.176;2023-02-28T13:56:06;15.32;;;7.63;;
962;SDS011;469;48.770;9.176;2023-02-28T14:01:55;14.05;;;6.80;;
962;SDS011;469;48.770;9.176;2023-02-28T14:04:33;12.98;;;6.85;;
962;SDS011;469;48.770;9.176;2023-02-28T14:08:36;19.00;;;7.45;;
962;SDS011;469;48.770;9.176;2023-02-28T14:11:03;12.05;;;6.60;;
962;SDS011;469;48.770;9.176;2023-02-28T14:13:51;15.57;;;6.97;;
962;SDS011;469;48.770;9.176;2023-02-28T14:16:23;14.00;;;7.15;;
962;SDS011;469;48.770;9.176;2023-02-28T14:19:04;12.90;;;6.60;;
962;SDS011;469;48.770;9.176;2023-02-28T14:21:53;13.23;;;7.05;;
962;SDS011;469;48.770;9.176;2023-02-28T14:24:42;13.57;;;6.70;;
962;SDS011;469;48.770;9.176;2023-02-28T14:27:32;12.68;;;6.93;;
962;SDS011;469;48.770;9.176;2023-02-28T14:32:49;15.45;;;6.95;;
962;SDS011;469;48.770;9.176;2023-02-28T14:35:31;11.07;;;6.00;;
962;SDS011;469;48.770;9.176;2023-02-28T14:38:04;13.55;;;7.00;;
962;SDS011;469;48.770;9.176;2023-02-28T14:43:49;11.95;;;6.68;;
962;SDS011;469;48.770;9.176;2023-02-28T14:46:35;13.65;;;6.45;;
962;SDS011;469;48.770;9.176;2023-02-28T14:49:19;11.80;;;6.20;;
962;SDS011;469;48.770;9.176;2023-02-28T14:55:03;14.20;;;6.80;;
962;SDS011;469;48.770;9.176;2023-02-28T14:57:58;14.15;;;7.32;;
962;SDS011;469;48.770;9.176;2023-02-28T15:00:52;11.90;;;6.45;;
962;SDS011;469;48.770;9.176;2023-02-28T15:03:29;13.57;;;6.53;;
962;SDS011;469;48.770;9.176;2023-02-28T15:17:28;14.55;;;7.05;;
962;SDS011;469;48.770;9.176;2023-02-28T15:20:00;14.32;;;7.18;;
962;SDS011;469;48.770;9.176;2023-02-28T15:22:40;13.68;;;6.78;;
962;SDS011;469;48.770;9.176;2023-02-28T15:25:37;17.48;;;7.20;;
962;SDS011;469;48.770;9.176;2023-02-28T15:31:18;13.30;;;7.10;;
962;SDS011;469;48.770;9.176;2023-02-28T15:34:04;16.27;;;8.30;;
962;SDS011;469;48.770;9.176;2023-02-28T15:40:14;15.55;;;7.93;;
962;SDS011;469;48.770;9.176;2023-02-28T15:43:04;18.20;;;7.18;;
962;SDS011;469;48.770;9.176;2023-02-28T15:46:02;18.73;;;6.93;;
962;SDS011;469;48.770;9.176;2023-02-28T15:48:36;14.48;;;6.50;;
962;SDS011;469;48.770;9.176;2023-02-28T16:06:07;14.00;;;7.25;;
962;SDS011;469;48.770;9.176;2023-02-28T16:16:14;17.48;;;8.10;;
962;SDS011;469;48.770;9.176;2023-02-28T16:18:55;12.07;;;6.85;;
962;SDS011;469;48.770;9.176;2023-02-28T16:21:24;15.05;;;7.70;;
962;SDS011;469;48.770;9.176;2023-02-28T16:23:54;12.75;;;7.18;;
962;SDS011;469;48.770;9.176;2023-02-28T16:27:28;15.38;;;7.78;;
962;SDS011;469;48.770;9.176;2023-02-28T16:29:28;14.68;;;7.32;;
962;SDS011;469;48.770;9.176;2023-02-28T16:32:41;15.63;;;7.75;;
962;SDS011;469;48.770;9.176;2023-02-28T16:44:00;13.75;;;7.07;;
962;SDS011;469;48.770;9.176;2023-02-28T16:46:36;14.68;;;8.05;;
962;SDS011;469;48.770;9.176;2023-02-28T16:49:31;14.32;;;7.60;;
962;SDS011;469;48.770;9.176;2023-02-28T16:52:15;13.75;;;7.15;;
962;SDS011;469;48.770;9.176;2023-02-28T16:54:50;13.90;;;7.80;;
962;SDS011;469;48.770;9.176;2023-02-28T16:57:22;15.77;;;7.40;;
962;SDS011;469;48.770;9.176;2023-02-28T17:00:01;17.50;;;8.77;;
962;SDS011;469;48.770;9.176;2023-02-28T17:02:53;16.75;;;7.18;;
962;SDS011;469;48.770;9.176;2023-02-28T17:05:36;15.80;;;7.75;;
962;SDS011;469;48.770;9.176;2023-02-28T17:08:22;19.92;;;7.72;;
962;SDS011;469;48.770;9.176;2023-02-28T17:11:07;19.27;;;7.20;;
962;SDS011;469;48.770;9.176;2023-02-28T17:13:52;19.42;;;8.40;;
962;SDS011;469;48.770;9.176;2023-02-28T17:16:38;22.67;;;8.45;;
962;SDS011;469;48.770;9.176;2023-02-28T17:19:37;20.50;;;8.40;;
962;SDS011;469;48.770;9.176;2023-02-28T17:25:19;15.73;;;8.13;;
962;SDS011;469;48.770;9.176;2023-02-28T17:28:06;22.70;;;9.00;;
962;SDS011;469;48.770;9.176;2023-02-28T17:30:56;16.27;;;7.88;;
962;SDS011;469;48.770;9.176;2023-02-28T17:33:37;15.57;;;7.72;;
962;SDS011;469;48.770;9.176;2023-02-28T17:38:58;15.90;;;7.65;;
962;SDS011;469;48.770;9.176;2023-02-28T17:41:51;18.55;;;8.82;;
962;SDS011;469;48.770;9.176;2023-02-28T17:45:17;13.07;;;7.30;;
962;SDS011;469;48.770;9.176;2023-02-28T17:54:01;18.88;;;8.20;;
962;SDS011;469;48.770;9.176;2023-02-28T17:57:17;18.50;;;7.82;;
962;SDS011;469;48.770;9.176;2023-02-28T17:59:46;19.08;;;8.60;;
